sensor_id;sensor_type;location;lat;lon;timestamp;pressure;altitude;pressure_sealevel;temperature;humidity
67840;BME280;54636;51.684;5.142;2022-08-02T00:02:22;101896.53;;;14.74;70.74
67840;BME280;54636;51.684;5.142;2022-08-02T00:04:48;101900.34;;;14.82;70.63
67840;BME280;54636;51.684;5.142;2022-08-02T00:07:13;101901.59;;;14.81;71.16
67840;BME280;54636;51.684;5.142;2022-08-02T00:09:40;101906.09;;;14.84;71.93
67840;BME280;54636;51.684;5.142;2022-08-02T00:12:05;101893.81;;;14.74;71.28
67840;BME280;54636;51.684;5.142;2022-08-02T00:14:31;101912.63;;;14.92;71.12
67840;BME280;54636;51.684;5.142;2022-08-02T00:16:56;101904.69;;;14.94;70.90
67840;BME280;54636;51.684;5.142;2022-08-02T00:19:22;101906.69;;;14.94;70.96
67840;BME280;54636;51.684;5.142;2022-08-02T00:21:47;101906.69;;;14.94;71.52
67840;BME280;54636;51.684;5.142;2022-08-02T00:24:13;101902.94;;;14.91;71.15
67840;BME280;54636;51.684;5.142;2022-08-02T00:26:41;101909.84;;;14.87;71.07
67840;BME280;54636;51.684;5.142;2022-08-02T00:29:07;101907.06;;;14.81;72.32
67840;BME280;54636;51.684;5.142;2022-08-02T00:31:32;101897.03;;;14.72;72.01
67840;BME280;54636;51.684;5.142;2022-08-02T00:33:58;101904.47;;;14.72;71.08
67840;BME280;54636;51.684;5.142;2022-08-02T00:36:23;101901.97;;;14.68;72.14
67840;BME280;54636;51.684;5.142;2022-08-02T00:38:49;101887.69;;;14.59;71.33
67840;BME280;54636;51.684;5.142;2022-08-02T00:41:18;101892.94;;;14.62;72.75
67840;BME280;54636;51.684;5.142;2022-08-02T00:43:45;101866.84;;;14.41;72.80
67840;BME280;54636;51.684;5.142;2022-08-02T00:46:11;101834.59;;;14.19;73.32
67840;BME280;54636;51.684;5.142;2022-08-02T00:48:36;101882.88;;;14.48;72.62
67840;BME280;54636;51.684;5.142;2022-08-02T00:51:02;101878.84;;;14.43;72.27
67840;BME280;54636;51.684;5.142;2022-08-02T00:53:28;101867.47;;;14.30;71.67
67840;BME280;54636;51.684;5.142;2022-08-02T00:55:54;101883.72;;;14.39;71.29
67840;BME280;54636;51.684;5.142;2022-08-02T00:58:20;101867.28;;;14.34;70.66
67840;BME280;54636;51.684;5.142;2022-08-02T01:00:45;101882.38;;;14.49;70.61
67840;BME280;54636;51.684;5.142;2022-08-02T01:03:11;101879.16;;;14.51;69.14
67840;BME280;54636;51.684;5.142;2022-08-02T01:05:36;101874.03;;;14.59;69.10
67840;BME280;54636;51.684;5.142;2022-08-02T01:08:02;101874.09;;;14.64;68.61
67840;BME280;54636;51.684;5.142;2022-08-02T01:10:27;101870.66;;;14.69;67.86
67840;BME280;54636;51.684;5.142;2022-08-02T01:12:53;101865.88;;;14.64;67.23
67840;BME280;54636;51.684;5.142;2022-08-02T01:15:18;101883.63;;;14.74;67.23
67840;BME280;54636;51.684;5.142;2022-08-02T01:28:42;101878.41;;;14.50;67.36
67840;BME280;54636;51.684;5.142;2022-08-02T01:31:31;101873.63;;;14.45;67.55
67840;BME280;54636;51.684;5.142;2022-08-02T01:34:03;101858.78;;;14.26;67.42
67840;BME280;54636;51.684;5.142;2022-08-02T01:36:37;101863.28;;;14.29;67.24
67840;BME280;54636;51.684;5.142;2022-08-02T01:39:07;101862.25;;;14.27;68.25
67840;BME280;54636;51.684;5.142;2022-08-02T01:41:41;101847.44;;;14.13;67.53
67840;BME280;54636;51.684;5.142;2022-08-02T01:44:09;101845.19;;;14.11;67.60
67840;BME280;54636;51.684;5.142;2022-08-02T01:46:38;101859.66;;;14.17;67.77
67840;BME280;54636;51.684;5.142;2022-08-02T01:49:09;101854.34;;;14.08;68.17
67840;BME280;54636;51.684;5.142;2022-08-02T01:51:37;101849.84;;;14.05;67.90
67840;BME280;54636;51.684;5.142;2022-08-02T01:54:24;101835.84;;;13.98;68.77
67840;BME280;54636;51.684;5.142;2022-08-02T01:56:51;101844.50;;;13.96;68.74
67840;BME280;54636;51.684;5.142;2022-08-02T01:59:20;101845.47;;;13.93;68.97
67840;BME280;54636;51.684;5.142;2022-08-02T02:01:48;101844.50;;;13.96;69.78
67840;BME280;54636;51.684;5.142;2022-08-02T02:04:15;101858.44;;;13.98;69.45
67840;BME280;54636;51.684;5.142;2022-08-02T02:06:43;101851.69;;;13.94;69.74
67840;BME280;54636;51.684;5.142;2022-08-02T02:09:11;101840.97;;;13.90;70.21
67840;BME280;54636;51.684;5.142;2022-08-02T02:11:40;101836.94;;;13.85;70.30
67840;BME280;54636;51.684;5.142;2022-08-02T02:14:11;101833.19;;;13.83;70.66
67840;BME280;54636;51.684;5.142;2022-08-02T02:16:40;101828.59;;;13.74;70.38
67840;BME280;54636;51.684;5.142;2022-08-02T02:19:07;101822.31;;;13.68;70.56
67840;BME280;54636;51.684;5.142;2022-08-02T02:21:36;101840.06;;;13.78;69.50
67840;BME280;54636;51.684;5.142;2022-08-02T02:24:02;101825.00;;;13.63;70.72
67840;BME280;54636;51.684;5.142;2022-08-02T02:26:29;101841.44;;;13.68;71.16
67840;BME280;54636;51.684;5.142;2022-08-02T02:28:57;101840.16;;;13.64;71.64
67840;BME280;54636;51.684;5.142;2022-08-02T02:31:24;101840.16;;;13.64;71.31
67840;BME280;54636;51.684;5.142;2022-08-02T02:34:02;101834.16;;;13.60;71.50
67840;BME280;54636;51.684;5.142;2022-08-02T02:36:28;101838.56;;;13.57;71.76
67840;BME280;54636;51.684;5.142;2022-08-02T02:38:57;101833.78;;;13.52;71.91
67840;BME280;54636;51.684;5.142;2022-08-02T02:41:24;101838.50;;;13.51;72.23
67840;BME280;54636;51.684;5.142;2022-08-02T02:43:53;101830.22;;;13.46;72.70
67840;BME280;54636;51.684;5.142;2022-08-02T02:46:20;101829.00;;;13.47;72.61
67840;BME280;54636;51.684;5.142;2022-08-02T02:48:47;101822.44;;;13.39;72.61
67840;BME280;54636;51.684;5.142;2022-08-02T02:51:14;101798.56;;;13.34;73.40
67840;BME280;54636;51.684;5.142;2022-08-02T02:53:41;101802.78;;;13.35;73.45
67840;BME280;54636;51.684;5.142;2022-08-02T02:56:08;101814.25;;;13.39;73.33
67840;BME280;54636;51.684;5.142;2022-08-02T02:58:34;101812.75;;;13.38;74.19
67840;BME280;54636;51.684;5.142;2022-08-02T03:00:59;101811.06;;;13.40;74.08
67840;BME280;54636;51.684;5.142;2022-08-02T03:03:44;101807.50;;;13.34;74.45
67840;BME280;54636;51.684;5.142;2022-08-02T03:06:10;101811.53;;;13.39;74.36
67840;BME280;54636;51.684;5.142;2022-08-02T03:08:35;101815.00;;;13.39;74.85
67840;BME280;54636;51.684;5.142;2022-08-02T03:11:01;101819.72;;;13.39;74.95
67840;BME280;54636;51.684;5.142;2022-08-02T03:13:27;101810.22;;;13.34;74.50
67840;BME280;54636;51.684;5.142;2022-08-02T03:15:53;101824.97;;;13.42;75.72
67840;BME280;54636;51.684;5.142;2022-08-02T03:18:35;101827.69;;;13.42;75.15
67840;BME280;54636;51.684;5.142;2022-08-02T03:21:03;101819.50;;;13.42;75.38
67840;BME280;54636;51.684;5.142;2022-08-02T03:23:29;101818.56;;;13.45;75.16
67840;BME280;54636;51.684;5.142;2022-08-02T03:25:55;101804.91;;;13.45;75.03
67840;BME280;54636;51.684;5.142;2022-08-02T03:28:20;101795.34;;;13.35;75.50
67840;BME280;54636;51.684;5.142;2022-08-02T03:30:46;101793.84;;;13.34;75.42
67840;BME280;54636;51.684;5.142;2022-08-02T03:33:11;101793.09;;;13.34;75.95
67840;BME280;54636;51.684;5.142;2022-08-02T03:35:39;101804.84;;;13.40;75.97
67840;BME280;54636;51.684;5.142;2022-08-02T03:38:06;101801.00;;;13.32;76.03
67840;BME280;54636;51.684;5.142;2022-08-02T03:40:32;101801.84;;;13.38;76.25
67840;BME280;54636;51.684;5.142;2022-08-02T03:42:58;101787.84;;;13.30;76.13
67840;BME280;54636;51.684;5.142;2022-08-02T03:45:24;101782.09;;;13.28;76.46
67840;BME280;54636;51.684;5.142;2022-08-02T03:47:50;101790.56;;;13.30;76.77
67840;BME280;54636;51.684;5.142;2022-08-02T03:50:17;101800.53;;;13.33;76.96
67840;BME280;54636;51.684;5.142;2022-08-02T03:52:44;101799.50;;;13.31;77.41
67840;BME280;54636;51.684;5.142;2022-08-02T03:55:11;101776.09;;;13.24;76.96
67840;BME280;54636;51.684;5.142;2022-08-02T03:57:41;101765.09;;;13.18;77.00
67840;BME280;54636;51.684;5.142;2022-08-02T04:00:08;101781.44;;;13.33;77.29
67840;BME280;54636;51.684;5.142;2022-08-02T04:02:35;101779.94;;;13.32;77.35
67840;BME280;54636;51.684;5.142;2022-08-02T04:05:00;101764.03;;;13.31;77.32
67840;BME280;54636;51.684;5.142;2022-08-02T04:07:26;101763.28;;;13.30;77.41
67840;BME280;54636;51.684;5.142;2022-08-02T04:09:51;101755.13;;;13.15;77.67
67840;BME280;54636;51.684;5.142;2022-08-02T04:12:16;101772.34;;;13.22;77.79
67840;BME280;54636;51.684;5.142;2022-08-02T04:14:42;101777.31;;;13.23;78.01
67840;BME280;54636;51.684;5.142;2022-08-02T04:17:09;101774.03;;;13.19;77.77
67840;BME280;54636;51.684;5.142;2022-08-02T04:19:39;101778.81;;;13.24;77.76
67840;BME280;54636;51.684;5.142;2022-08-02T04:22:16;101760.41;;;13.19;77.90
67840;BME280;54636;51.684;5.142;2022-08-02T04:24:46;101761.91;;;13.20;78.06
67840;BME280;54636;51.684;5.142;2022-08-02T04:27:14;101771.03;;;13.17;78.37
67840;BME280;54636;51.684;5.142;2022-08-02T04:29:40;101768.00;;;13.15;78.21
67840;BME280;54636;51.684;5.142;2022-08-02T04:32:07;101769.22;;;13.14;78.38
67840;BME280;54636;51.684;5.142;2022-08-02T04:34:32;101769.53;;;13.16;78.17
67840;BME280;54636;51.684;5.142;2022-08-02T04:36:59;101776.28;;;13.21;78.38
67840;BME280;54636;51.684;5.142;2022-08-02T04:39:25;101773.84;;;13.23;78.67
67840;BME280;54636;51.684;5.142;2022-08-02T04:41:50;101773.16;;;13.28;78.57
67840;BME280;54636;51.684;5.142;2022-08-02T04:44:16;101774.28;;;13.36;78.50
67840;BME280;54636;51.684;5.142;2022-08-02T04:46:43;101778.53;;;13.57;78.14
67840;BME280;54636;51.684;5.142;2022-08-02T04:49:09;101761.59;;;13.53;77.13
67840;BME280;54636;51.684;5.142;2022-08-02T04:51:35;101767.34;;;13.55;77.80
67840;BME280;54636;51.684;5.142;2022-08-02T04:54:02;101767.81;;;13.54;78.15
67840;BME280;54636;51.684;5.142;2022-08-02T04:56:30;101779.00;;;13.56;78.16
67840;BME280;54636;51.684;5.142;2022-08-02T04:58:56;101768.84;;;13.56;78.58
67840;BME280;54636;51.684;5.142;2022-08-02T05:01:21;101751.56;;;13.44;78.29
67840;BME280;54636;51.684;5.142;2022-08-02T05:03:47;101767.41;;;13.61;78.71
67840;BME280;54636;51.684;5.142;2022-08-02T05:06:12;101769.22;;;13.69;78.74
67840;BME280;54636;51.684;5.142;2022-08-02T05:08:37;101763.28;;;13.71;78.09
67840;BME280;54636;51.684;5.142;2022-08-02T05:11:03;101720.28;;;13.66;77.77
67840;BME280;54636;51.684;5.142;2022-08-02T05:13:28;101764.50;;;14.16;76.94
67840;BME280;54636;51.684;5.142;2022-08-02T05:15:54;101753.53;;;14.10;77.01
67840;BME280;54636;51.684;5.142;2022-08-02T05:18:19;101754.25;;;14.37;76.95
67840;BME280;54636;51.684;5.142;2022-08-02T05:20:44;101744.50;;;14.56;76.09
67840;BME280;54636;51.684;5.142;2022-08-02T05:23:10;101704.56;;;14.38;75.95
67840;BME280;54636;51.684;5.142;2022-08-02T05:25:35;101743.59;;;14.65;76.38
67840;BME280;54636;51.684;5.142;2022-08-02T05:28:00;101731.38;;;14.60;76.02
67840;BME280;54636;51.684;5.142;2022-08-02T05:30:26;101751.03;;;15.01;76.60
67840;BME280;54636;51.684;5.142;2022-08-02T05:32:51;101735.53;;;15.35;74.58
67840;BME280;54636;51.684;5.142;2022-08-02T05:35:19;101749.81;;;15.56;74.02
67840;BME280;54636;51.684;5.142;2022-08-02T05:37:45;101757.75;;;15.48;74.43
67840;BME280;54636;51.684;5.142;2022-08-02T05:40:11;101775.19;;;15.51;74.58
67840;BME280;54636;51.684;5.142;2022-08-02T05:42:36;101781.66;;;15.54;75.04
67840;BME280;54636;51.684;5.142;2022-08-02T05:45:03;101786.38;;;15.53;76.72
67840;BME280;54636;51.684;5.142;2022-08-02T05:47:28;101788.19;;;15.67;75.57
67840;BME280;54636;51.684;5.142;2022-08-02T05:49:54;101772.25;;;15.66;75.50
67840;BME280;54636;51.684;5.142;2022-08-02T05:52:23;101790.25;;;15.84;75.87
67840;BME280;54636;51.684;5.142;2022-08-02T05:55:06;101789.00;;;15.79;75.26
67840;BME280;54636;51.684;5.142;2022-08-02T06:00:07;101792.00;;;15.81;76.73
67840;BME280;54636;51.684;5.142;2022-08-02T06:05:21;101783.34;;;16.05;77.48
67840;BME280;54636;51.684;5.142;2022-08-02T06:07:48;101769.66;;;16.10;76.63
67840;BME280;54636;51.684;5.142;2022-08-02T06:10:19;101778.66;;;16.22;76.64
67840;BME280;54636;51.684;5.142;2022-08-02T06:12:58;101775.41;;;16.24;76.65
67840;BME280;54636;51.684;5.142;2022-08-02T06:15:26;101746.00;;;16.13;77.35
67840;BME280;54636;51.684;5.142;2022-08-02T06:17:52;101770.66;;;16.35;77.34
67840;BME280;54636;51.684;5.142;2022-08-02T06:20:19;101772.41;;;16.38;77.02
67840;BME280;54636;51.684;5.142;2022-08-02T06:22:44;101773.16;;;16.44;77.21
67840;BME280;54636;51.684;5.142;2022-08-02T06:25:11;101762.44;;;16.52;77.66
67840;BME280;54636;51.684;5.142;2022-08-02T06:27:39;101732.78;;;16.39;77.71
67840;BME280;54636;51.684;5.142;2022-08-02T06:30:06;101747.00;;;16.60;77.11
67840;BME280;54636;51.684;5.142;2022-08-02T06:32:32;101760.22;;;16.78;77.34
67840;BME280;54636;51.684;5.142;2022-08-02T06:35:04;101766.19;;;16.88;77.49
67840;BME280;54636;51.684;5.142;2022-08-02T06:37:51;101768.66;;;16.97;76.82
67840;BME280;54636;51.684;5.142;2022-08-02T06:40:42;101781.34;;;17.11;77.24
67840;BME280;54636;51.684;5.142;2022-08-02T06:45:44;101766.84;;;17.22;77.75
67840;BME280;54636;51.684;5.142;2022-08-02T06:48:10;101769.78;;;17.41;78.29
67840;BME280;54636;51.684;5.142;2022-08-02T06:50:36;101775.75;;;17.51;78.00
67840;BME280;54636;51.684;5.142;2022-08-02T06:53:04;101756.75;;;17.53;78.07
67840;BME280;54636;51.684;5.142;2022-08-02T06:55:30;101764.66;;;17.73;78.19
67840;BME280;54636;51.684;5.142;2022-08-02T06:57:57;101767.81;;;17.94;78.39
67840;BME280;54636;51.684;5.142;2022-08-02T07:00:22;101723.66;;;18.46;75.38
67840;BME280;54636;51.684;5.142;2022-08-02T07:02:48;101753.44;;;19.45;72.89
67840;BME280;54636;51.684;5.142;2022-08-02T07:05:14;101747.41;;;20.16;70.56
67840;BME280;54636;51.684;5.142;2022-08-02T07:07:39;101746.44;;;20.78;68.03
67840;BME280;54636;51.684;5.142;2022-08-02T07:10:05;101754.84;;;21.25;66.91
67840;BME280;54636;51.684;5.142;2022-08-02T07:12:32;101756.75;;;21.77;65.45
67840;BME280;54636;51.684;5.142;2022-08-02T07:14:59;101760.97;;;22.12;63.73
67840;BME280;54636;51.684;5.142;2022-08-02T07:17:25;101771.66;;;22.08;63.60
67840;BME280;54636;51.684;5.142;2022-08-02T07:19:51;101764.38;;;21.84;64.11
67840;BME280;54636;51.684;5.142;2022-08-02T07:22:16;101762.72;;;21.68;64.99
67840;BME280;54636;51.684;5.142;2022-08-02T07:24:43;101753.34;;;21.71;64.60
67840;BME280;54636;51.684;5.142;2022-08-02T07:27:09;101758.66;;;21.82;64.33
67840;BME280;54636;51.684;5.142;2022-08-02T07:29:34;101751.09;;;21.83;64.56
67840;BME280;54636;51.684;5.142;2022-08-02T07:32:00;101750.47;;;21.77;64.55
67840;BME280;54636;51.684;5.142;2022-08-02T07:34:25;101758.34;;;21.73;65.79
67840;BME280;54636;51.684;5.142;2022-08-02T07:36:51;101740.44;;;21.53;65.26
67840;BME280;54636;51.684;5.142;2022-08-02T07:39:16;101768.06;;;21.53;66.26
67840;BME280;54636;51.684;5.142;2022-08-02T07:41:41;101758.13;;;21.36;66.24
67840;BME280;54636;51.684;5.142;2022-08-02T07:44:07;101755.25;;;21.29;67.74
67840;BME280;54636;51.684;5.142;2022-08-02T07:46:32;101744.53;;;21.25;67.49
67840;BME280;54636;51.684;5.142;2022-08-02T07:48:58;101758.34;;;21.39;68.19
67840;BME280;54636;51.684;5.142;2022-08-02T07:51:23;101746.81;;;21.48;67.35
67840;BME280;54636;51.684;5.142;2022-08-02T07:53:49;101760.16;;;21.70;67.22
67840;BME280;54636;51.684;5.142;2022-08-02T07:56:14;101757.16;;;21.81;67.20
67840;BME280;54636;51.684;5.142;2022-08-02T07:58:40;101754.88;;;21.93;67.50
67840;BME280;54636;51.684;5.142;2022-08-02T08:01:05;101749.19;;;22.12;65.42
67840;BME280;54636;51.684;5.142;2022-08-02T08:03:31;101740.75;;;22.17;65.44
67840;BME280;54636;51.684;5.142;2022-08-02T08:05:56;101733.13;;;22.10;64.46
67840;BME280;54636;51.684;5.142;2022-08-02T08:08:22;101756.75;;;22.32;64.67
67840;BME280;54636;51.684;5.142;2022-08-02T08:10:47;101741.41;;;22.31;65.42
67840;BME280;54636;51.684;5.142;2022-08-02T08:13:13;101748.72;;;22.42;64.73
67840;BME280;54636;51.684;5.142;2022-08-02T08:15:39;101738.63;;;22.52;65.09
67840;BME280;54636;51.684;5.142;2022-08-02T08:18:04;101745.03;;;22.67;64.16
67840;BME280;54636;51.684;5.142;2022-08-02T08:20:29;101740.88;;;22.82;64.70
67840;BME280;54636;51.684;5.142;2022-08-02T08:22:55;101742.47;;;22.98;62.09
67840;BME280;54636;51.684;5.142;2022-08-02T08:25:20;101722.91;;;23.04;62.66
67840;BME280;54636;51.684;5.142;2022-08-02T08:27:47;101753.34;;;23.32;62.55
67840;BME280;54636;51.684;5.142;2022-08-02T08:30:13;101734.34;;;23.44;62.09
67840;BME280;54636;51.684;5.142;2022-08-02T08:32:38;101752.94;;;23.64;59.99
67840;BME280;54636;51.684;5.142;2022-08-02T08:35:04;101735.94;;;23.68;60.16
67840;BME280;54636;51.684;5.142;2022-08-02T08:37:37;101758.16;;;23.83;60.89
67840;BME280;54636;51.684;5.142;2022-08-02T08:40:08;101752.44;;;23.88;59.44
67840;BME280;54636;51.684;5.142;2022-08-02T08:42:36;101743.00;;;23.91;59.12
67840;BME280;54636;51.684;5.142;2022-08-02T08:45:03;101745.03;;;24.06;57.98
67840;BME280;54636;51.684;5.142;2022-08-02T08:47:40;101751.91;;;24.13;58.75
67840;BME280;54636;51.684;5.142;2022-08-02T08:50:19;101723.41;;;23.97;57.98
67840;BME280;54636;51.684;5.142;2022-08-02T08:52:48;101749.50;;;24.24;57.70
67840;BME280;54636;51.684;5.142;2022-08-02T08:55:14;101749.69;;;24.19;57.08
67840;BME280;54636;51.684;5.142;2022-08-02T08:57:42;101737.84;;;24.18;56.76
67840;BME280;54636;51.684;5.142;2022-08-02T09:00:10;101751.94;;;24.28;55.92
67840;BME280;54636;51.684;5.142;2022-08-02T09:02:39;101736.19;;;24.15;55.94
67840;BME280;54636;51.684;5.142;2022-08-02T09:05:12;101745.25;;;24.23;56.45
67840;BME280;54636;51.684;5.142;2022-08-02T09:07:38;101730.06;;;24.17;54.76
67840;BME280;54636;51.684;5.142;2022-08-02T09:13:20;101741.38;;;24.57;53.18
67840;BME280;54636;51.684;5.142;2022-08-02T09:15:59;101728.59;;;24.61;52.48
67840;BME280;54636;51.684;5.142;2022-08-02T09:18:36;101728.19;;;24.73;51.70
67840;BME280;54636;51.684;5.142;2022-08-02T09:21:05;101741.13;;;24.93;49.63
67840;BME280;54636;51.684;5.142;2022-08-02T09:23:36;101712.44;;;24.83;50.14
67840;BME280;54636;51.684;5.142;2022-08-02T09:26:05;101722.03;;;25.05;50.06
67840;BME280;54636;51.684;5.142;2022-08-02T09:28:33;101733.44;;;25.24;48.89
67840;BME280;54636;51.684;5.142;2022-08-02T09:31:13;101713.22;;;25.31;48.72
67840;BME280;54636;51.684;5.142;2022-08-02T09:33:40;101735.16;;;25.52;48.60
67840;BME280;54636;51.684;5.142;2022-08-02T09:36:11;101736.03;;;25.62;46.43
67840;BME280;54636;51.684;5.142;2022-08-02T09:38:37;101736.88;;;25.80;45.36
67840;BME280;54636;51.684;5.142;2022-08-02T09:41:20;101746.38;;;25.77;46.65
67840;BME280;54636;51.684;5.142;2022-08-02T09:43:46;101742.31;;;25.70;45.30
67840;BME280;54636;51.684;5.142;2022-08-02T09:46:17;101761.19;;;25.79;44.16
67840;BME280;54636;51.684;5.142;2022-08-02T09:48:47;101742.84;;;25.76;44.03
67840;BME280;54636;51.684;5.142;2022-08-02T09:51:19;101765.63;;;25.82;43.24
67840;BME280;54636;51.684;5.142;2022-08-02T09:53:47;101757.63;;;25.86;42.69
67840;BME280;54636;51.684;5.142;2022-08-02T09:56:15;101752.59;;;25.92;42.20
67840;BME280;54636;51.684;5.142;2022-08-02T09:58:41;101754.41;;;25.98;43.38
67840;BME280;54636;51.684;5.142;2022-08-02T10:01:06;101740.69;;;26.17;41.69
67840;BME280;54636;51.684;5.142;2022-08-02T10:03:32;101739.22;;;26.41;40.84
67840;BME280;54636;51.684;5.142;2022-08-02T10:05:58;101752.06;;;26.61;40.06
67840;BME280;54636;51.684;5.142;2022-08-02T10:08:26;101741.06;;;26.80;41.02
67840;BME280;54636;51.684;5.142;2022-08-02T10:10:53;101763.38;;;27.15;40.09
67840;BME280;54636;51.684;5.142;2022-08-02T10:13:33;101759.72;;;27.39;40.06
67840;BME280;54636;51.684;5.142;2022-08-02T10:15:59;101706.63;;;27.20;39.21
67840;BME280;54636;51.684;5.142;2022-08-02T10:18:26;101710.09;;;27.38;38.62
67840;BME280;54636;51.684;5.142;2022-08-02T10:20:53;101713.81;;;27.50;39.36
67840;BME280;54636;51.684;5.142;2022-08-02T10:23:20;101722.09;;;27.58;38.62
67840;BME280;54636;51.684;5.142;2022-08-02T10:25:49;101725.38;;;27.64;37.06
67840;BME280;54636;51.684;5.142;2022-08-02T10:28:15;101744.59;;;27.60;36.70
67840;BME280;54636;51.684;5.142;2022-08-02T10:30:44;101722.81;;;27.31;36.07
67840;BME280;54636;51.684;5.142;2022-08-02T10:33:16;101739.25;;;27.27;36.22
67840;BME280;54636;51.684;5.142;2022-08-02T10:35:42;101734.75;;;27.14;36.36
67840;BME280;54636;51.684;5.142;2022-08-02T10:38:10;101733.47;;;26.98;36.33
67840;BME280;54636;51.684;5.142;2022-08-02T10:40:53;101737.63;;;27.07;38.33
67840;BME280;54636;51.684;5.142;2022-08-02T10:46:35;101740.41;;;27.24;38.70
67840;BME280;54636;51.684;5.142;2022-08-02T10:49:11;101733.56;;;27.35;37.34
67840;BME280;54636;51.684;5.142;2022-08-02T10:51:53;101744.19;;;27.46;38.06
67840;BME280;54636;51.684;5.142;2022-08-02T10:54:33;101710.91;;;27.31;38.50
67840;BME280;54636;51.684;5.142;2022-08-02T10:57:00;101730.25;;;27.46;37.88
67840;BME280;54636;51.684;5.142;2022-08-02T10:59:33;101722.69;;;27.56;37.74
67840;BME280;54636;51.684;5.142;2022-08-02T11:02:04;101718.66;;;27.67;36.69
67840;BME280;54636;51.684;5.142;2022-08-02T11:07:12;101694.00;;;27.73;36.36
67840;BME280;54636;51.684;5.142;2022-08-02T11:09:40;101693.75;;;27.88;35.70
67840;BME280;54636;51.684;5.142;2022-08-02T11:12:10;101707.75;;;28.07;35.62
67840;BME280;54636;51.684;5.142;2022-08-02T11:14:42;101689.03;;;27.81;34.16
67840;BME280;54636;51.684;5.142;2022-08-02T11:17:16;101705.31;;;27.75;35.14
67840;BME280;54636;51.684;5.142;2022-08-02T11:22:34;101724.84;;;27.75;32.85
67840;BME280;54636;51.684;5.142;2022-08-02T11:27:51;101718.41;;;27.55;35.19
67840;BME280;54636;51.684;5.142;2022-08-02T11:30:17;101727.06;;;27.76;34.55
67840;BME280;54636;51.684;5.142;2022-08-02T11:32:43;101725.38;;;28.00;34.25
67840;BME280;54636;51.684;5.142;2022-08-02T11:35:08;101722.34;;;28.15;33.06
67840;BME280;54636;51.684;5.142;2022-08-02T11:37:36;101718.38;;;28.18;32.93
67840;BME280;54636;51.684;5.142;2022-08-02T11:40:03;101718.03;;;28.41;33.41
67840;BME280;54636;51.684;5.142;2022-08-02T11:42:36;101711.88;;;28.52;34.12
67840;BME280;54636;51.684;5.142;2022-08-02T11:45:04;101699.94;;;28.52;33.34
67840;BME280;54636;51.684;5.142;2022-08-02T11:47:30;101703.75;;;28.47;33.04
67840;BME280;54636;51.684;5.142;2022-08-02T11:50:07;101721.41;;;28.49;32.71
67840;BME280;54636;51.684;5.142;2022-08-02T11:52:34;101714.94;;;28.47;34.42
67840;BME280;54636;51.684;5.142;2022-08-02T11:55:00;101717.91;;;28.59;32.63
67840;BME280;54636;51.684;5.142;2022-08-02T11:57:26;101715.81;;;28.49;33.44
67840;BME280;54636;51.684;5.142;2022-08-02T11:59:53;101710.06;;;28.38;33.65
67840;BME280;54636;51.684;5.142;2022-08-02T12:02:24;101703.88;;;28.30;34.63
67840;BME280;54636;51.684;5.142;2022-08-02T12:04:58;101717.59;;;28.45;34.24
67840;BME280;54636;51.684;5.142;2022-08-02T12:07:36;101725.38;;;28.46;33.82
67840;BME280;54636;51.684;5.142;2022-08-02T12:10:03;101696.53;;;28.34;33.70
67840;BME280;54636;51.684;5.142;2022-08-02T12:12:29;101704.91;;;28.34;33.64
67840;BME280;54636;51.684;5.142;2022-08-02T12:14:55;101708.59;;;28.27;34.47
67840;BME280;54636;51.684;5.142;2022-08-02T12:17:24;101704.75;;;28.23;34.42
67840;BME280;54636;51.684;5.142;2022-08-02T12:20:10;101706.47;;;28.18;35.11
67840;BME280;54636;51.684;5.142;2022-08-02T12:22:36;101699.50;;;28.00;35.23
67840;BME280;54636;51.684;5.142;2022-08-02T12:25:22;101699.38;;;28.07;35.00
67840;BME280;54636;51.684;5.142;2022-08-02T12:27:48;101701.25;;;27.95;34.82
67840;BME280;54636;51.684;5.142;2022-08-02T12:30:16;101692.75;;;27.93;34.53
67840;BME280;54636;51.684;5.142;2022-08-02T12:32:43;101701.72;;;28.01;34.65
67840;BME280;54636;51.684;5.142;2022-08-02T12:35:12;101708.97;;;28.14;35.80
67840;BME280;54636;51.684;5.142;2022-08-02T12:37:42;101709.84;;;28.16;35.20
67840;BME280;54636;51.684;5.142;2022-08-02T12:40:29;101699.56;;;28.19;34.39
67840;BME280;54636;51.684;5.142;2022-08-02T12:43:06;101692.94;;;28.14;34.31
67840;BME280;54636;51.684;5.142;2022-08-02T12:45:44;101689.88;;;28.20;35.32
67840;BME280;54636;51.684;5.142;2022-08-02T12:48:10;101690.19;;;28.24;33.87
67840;BME280;54636;51.684;5.142;2022-08-02T12:50:36;101704.91;;;28.25;34.65
67840;BME280;54636;51.684;5.142;2022-08-02T12:53:15;101691.34;;;28.21;35.54
67840;BME280;54636;51.684;5.142;2022-08-02T12:55:50;101688.59;;;28.31;35.34
67840;BME280;54636;51.684;5.142;2022-08-02T12:58:16;101699.63;;;28.38;35.18
67840;BME280;54636;51.684;5.142;2022-08-02T13:00:54;101654.25;;;28.11;34.87
67840;BME280;54636;51.684;5.142;2022-08-02T13:03:20;101690.22;;;28.34;33.55
67840;BME280;54636;51.684;5.142;2022-08-02T13:05:45;101681.09;;;28.43;35.25
67840;BME280;54636;51.684;5.142;2022-08-02T13:08:12;101683.03;;;28.50;35.00
67840;BME280;54636;51.684;5.142;2022-08-02T13:10:37;101686.13;;;28.54;34.42
67840;BME280;54636;51.684;5.142;2022-08-02T13:13:03;101668.31;;;28.49;34.62
67840;BME280;54636;51.684;5.142;2022-08-02T13:15:28;101667.59;;;28.49;33.77
67840;BME280;54636;51.684;5.142;2022-08-02T13:17:54;101671.13;;;28.59;34.54
67840;BME280;54636;51.684;5.142;2022-08-02T13:20:19;101633.47;;;28.41;35.10
67840;BME280;54636;51.684;5.142;2022-08-02T13:22:45;101638.75;;;28.46;35.43
67840;BME280;54636;51.684;5.142;2022-08-02T13:25:10;101640.38;;;28.59;35.81
67840;BME280;54636;51.684;5.142;2022-08-02T13:27:36;101646.53;;;28.67;35.48
67840;BME280;54636;51.684;5.142;2022-08-02T13:30:03;101650.34;;;28.72;36.07